LOWW/VIE METAR and TAF weather

Enter ICAO airport designator
Station Type Date Time Source
LOWW METAR 2021/10/22 19:50 UTC NOAA

LOWW 221950Z 29015KT CAVOK 10/03 Q1020 NOSIG


Station Type Date Time Source
LOWW Decoded METAR 2021/10/22 19:50 UTC NOAA

Wien / Schwechat-Flughafen, Austria (LOWW) 48-07N 016-34E 190M
Oct 22, 2021 - 03:50 PM EDT / 2021.10.22 1950 UTC
Wind: from the WNW (290 degrees) at 17 MPH (15 KT):0
Visibility: greater than 7 mile(s):0
Temperature: 50 F (10 C)
Dew Point: 37 F (3 C)
Relative Humidity: 61%
Pressure (altimeter): 30.12 in. Hg (1020 hPa)
ob: LOWW 221950Z 29015KT CAVOK 10/03 Q1020 NOSIG
cycle: 20

Station Type Date Time Source
LOWW TAF 2021/10/22 18:21 UTC NOAA

TAF LOWW 221715Z 2218/2324 29014KT 9999 SCT040 TX12/2312Z TN04/2324Z
BECMG 2320/2322 31004KT

Example: see airport list